sensor_id;sensor_type;location;lat;lon;timestamp;temperature;humidity
45008;DHT22;30743;52.008;5.644;2024-01-30T00:01:12;13.50;99.90
45008;DHT22;30743;52.008;5.644;2024-01-30T00:03:38;12.80;99.90
45008;DHT22;30743;52.008;5.644;2024-01-30T00:06:04;12.80;99.90
45008;DHT22;30743;52.008;5.644;2024-01-30T00:08:29;12.80;99.90
45008;DHT22;30743;52.008;5.644;2024-01-30T00:10:55;12.80;99.90
45008;DHT22;30743;52.008;5.644;2024-01-30T00:13:21;13.00;99.90
45008;DHT22;30743;52.008;5.644;2024-01-30T00:15:46;12.70;99.90
45008;DHT22;30743;52.008;5.644;2024-01-30T00:18:12;12.70;99.90
45008;DHT22;30743;52.008;5.644;2024-01-30T00:20:38;12.70;99.90
45008;DHT22;30743;52.008;5.644;2024-01-30T00:23:03;12.70;99.90
45008;DHT22;30743;52.008;5.644;2024-01-30T00:25:30;12.80;99.90
45008;DHT22;30743;52.008;5.644;2024-01-30T00:27:56;13.10;99.90
45008;DHT22;30743;52.008;5.644;2024-01-30T00:30:21;12.80;99.90
45008;DHT22;30743;52.008;5.644;2024-01-30T00:32:47;12.90;99.90
45008;DHT22;30743;52.008;5.644;2024-01-30T00:35:13;12.80;99.90
45008;DHT22;30743;52.008;5.644;2024-01-30T00:37:38;12.90;99.90
45008;DHT22;30743;52.008;5.644;2024-01-30T00:40:04;13.00;99.90
45008;DHT22;30743;52.008;5.644;2024-01-30T00:42:31;13.10;99.90
45008;DHT22;30743;52.008;5.644;2024-01-30T00:44:57;13.00;99.90
45008;DHT22;30743;52.008;5.644;2024-01-30T00:47:23;12.90;99.90
45008;DHT22;30743;52.008;5.644;2024-01-30T00:49:48;12.90;99.90
45008;DHT22;30743;52.008;5.644;2024-01-30T00:52:15;12.70;99.90
45008;DHT22;30743;52.008;5.644;2024-01-30T00:54:41;12.80;99.90
45008;DHT22;30743;52.008;5.644;2024-01-30T00:57:07;12.90;99.90
45008;DHT22;30743;52.008;5.644;2024-01-30T00:59:32;13.00;99.90
45008;DHT22;30743;52.008;5.644;2024-01-30T01:01:58;13.00;99.90
45008;DHT22;30743;52.008;5.644;2024-01-30T01:04:23;13.10;99.90
45008;DHT22;30743;52.008;5.644;2024-01-30T01:06:49;12.90;99.90
45008;DHT22;30743;52.008;5.644;2024-01-30T01:09:15;12.90;99.90
45008;DHT22;30743;52.008;5.644;2024-01-30T01:11:40;12.80;99.90
45008;DHT22;30743;52.008;5.644;2024-01-30T01:14:06;12.60;99.90
45008;DHT22;30743;52.008;5.644;2024-01-30T01:16:32;12.40;99.90
45008;DHT22;30743;52.008;5.644;2024-01-30T01:18:58;12.20;99.90
45008;DHT22;30743;52.008;5.644;2024-01-30T01:21:25;12.20;99.90
45008;DHT22;30743;52.008;5.644;2024-01-30T01:23:51;12.10;99.90
45008;DHT22;30743;52.008;5.644;2024-01-30T01:26:16;12.10;99.90
45008;DHT22;30743;52.008;5.644;2024-01-30T01:28:42;12.20;99.90
45008;DHT22;30743;52.008;5.644;2024-01-30T01:31:08;12.20;99.90
45008;DHT22;30743;52.008;5.644;2024-01-30T01:33:33;12.20;99.90
45008;DHT22;30743;52.008;5.644;2024-01-30T01:36:00;12.00;99.90
45008;DHT22;30743;52.008;5.644;2024-01-30T01:38:28;12.10;99.90
45008;DHT22;30743;52.008;5.644;2024-01-30T01:40:53;12.20;99.90
45008;DHT22;30743;52.008;5.644;2024-01-30T01:43:19;12.20;99.90
45008;DHT22;30743;52.008;5.644;2024-01-30T01:45:45;12.00;99.90
45008;DHT22;30743;52.008;5.644;2024-01-30T01:48:11;12.00;99.90
45008;DHT22;30743;52.008;5.644;2024-01-30T01:50:38;11.80;99.90
45008;DHT22;30743;52.008;5.644;2024-01-30T01:53:06;11.80;99.90
45008;DHT22;30743;52.008;5.644;2024-01-30T01:55:33;11.80;99.90
45008;DHT22;30743;52.008;5.644;2024-01-30T01:57:59;11.70;99.90
45008;DHT22;30743;52.008;5.644;2024-01-30T02:00:25;11.60;99.90
45008;DHT22;30743;52.008;5.644;2024-01-30T02:02:51;11.40;99.90
45008;DHT22;30743;52.008;5.644;2024-01-30T02:05:19;11.40;99.90
45008;DHT22;30743;52.008;5.644;2024-01-30T02:07:45;11.50;99.90
45008;DHT22;30743;52.008;5.644;2024-01-30T02:10:11;11.60;99.90
45008;DHT22;30743;52.008;5.644;2024-01-30T02:12:36;11.70;99.90
45008;DHT22;30743;52.008;5.644;2024-01-30T02:15:02;11.70;99.90
45008;DHT22;30743;52.008;5.644;2024-01-30T02:17:28;11.60;99.90
45008;DHT22;30743;52.008;5.644;2024-01-30T02:19:53;11.50;99.90
45008;DHT22;30743;52.008;5.644;2024-01-30T02:22:20;11.50;99.90
45008;DHT22;30743;52.008;5.644;2024-01-30T02:24:46;11.60;99.90
45008;DHT22;30743;52.008;5.644;2024-01-30T02:27:12;11.60;99.90
45008;DHT22;30743;52.008;5.644;2024-01-30T02:29:37;11.50;99.90
45008;DHT22;30743;52.008;5.644;2024-01-30T02:32:03;11.70;99.90
45008;DHT22;30743;52.008;5.644;2024-01-30T02:34:29;11.70;99.90
45008;DHT22;30743;52.008;5.644;2024-01-30T02:36:54;11.90;99.90
45008;DHT22;30743;52.008;5.644;2024-01-30T02:39:20;11.80;99.90
45008;DHT22;30743;52.008;5.644;2024-01-30T02:41:45;11.80;99.90
45008;DHT22;30743;52.008;5.644;2024-01-30T02:44:11;13.10;99.90
45008;DHT22;30743;52.008;5.644;2024-01-30T02:46:37;11.70;99.90
45008;DHT22;30743;52.008;5.644;2024-01-30T02:49:02;11.70;99.90
45008;DHT22;30743;52.008;5.644;2024-01-30T02:51:28;11.60;99.90
45008;DHT22;30743;52.008;5.644;2024-01-30T02:53:53;11.80;99.90
45008;DHT22;30743;52.008;5.644;2024-01-30T02:56:19;11.60;99.90
45008;DHT22;30743;52.008;5.644;2024-01-30T02:58:44;11.60;99.90
45008;DHT22;30743;52.008;5.644;2024-01-30T03:01:10;12.80;99.90
45008;DHT22;30743;52.008;5.644;2024-01-30T03:03:36;11.90;99.90
45008;DHT22;30743;52.008;5.644;2024-01-30T03:06:01;11.90;99.90
45008;DHT22;30743;52.008;5.644;2024-01-30T03:08:27;12.00;99.90
45008;DHT22;30743;52.008;5.644;2024-01-30T03:10:53;11.90;99.90
45008;DHT22;30743;52.008;5.644;2024-01-30T03:13:19;13.30;99.90
45008;DHT22;30743;52.008;5.644;2024-01-30T03:15:44;12.00;99.90
45008;DHT22;30743;52.008;5.644;2024-01-30T03:18:10;12.20;99.90
45008;DHT22;30743;52.008;5.644;2024-01-30T03:20:35;12.20;99.90
45008;DHT22;30743;52.008;5.644;2024-01-30T03:23:01;12.40;99.90
45008;DHT22;30743;52.008;5.644;2024-01-30T03:25:27;12.30;99.90
45008;DHT22;30743;52.008;5.644;2024-01-30T03:27:52;12.40;99.90
45008;DHT22;30743;52.008;5.644;2024-01-30T03:30:18;12.40;99.90
45008;DHT22;30743;52.008;5.644;2024-01-30T03:32:44;12.40;99.90
45008;DHT22;30743;52.008;5.644;2024-01-30T03:35:09;12.40;99.90
45008;DHT22;30743;52.008;5.644;2024-01-30T03:37:35;12.30;99.90
45008;DHT22;30743;52.008;5.644;2024-01-30T03:40:02;12.30;99.90
45008;DHT22;30743;52.008;5.644;2024-01-30T03:42:28;12.20;99.90
45008;DHT22;30743;52.008;5.644;2024-01-30T03:44:54;12.20;99.90
45008;DHT22;30743;52.008;5.644;2024-01-30T03:47:20;13.70;99.90
45008;DHT22;30743;52.008;5.644;2024-01-30T03:49:46;12.10;99.90
45008;DHT22;30743;52.008;5.644;2024-01-30T03:52:12;11.90;99.90
45008;DHT22;30743;52.008;5.644;2024-01-30T03:54:37;13.10;99.90
45008;DHT22;30743;52.008;5.644;2024-01-30T03:57:03;11.90;99.90
45008;DHT22;30743;52.008;5.644;2024-01-30T03:59:29;11.90;99.90
45008;DHT22;30743;52.008;5.644;2024-01-30T04:01:55;12.00;99.90
45008;DHT22;30743;52.008;5.644;2024-01-30T04:04:20;12.00;99.90
45008;DHT22;30743;52.008;5.644;2024-01-30T04:06:46;12.10;99.90
45008;DHT22;30743;52.008;5.644;2024-01-30T04:09:15;12.10;99.90
45008;DHT22;30743;52.008;5.644;2024-01-30T04:11:41;12.20;99.90
45008;DHT22;30743;52.008;5.644;2024-01-30T04:14:07;12.10;99.90
45008;DHT22;30743;52.008;5.644;2024-01-30T04:16:33;13.20;99.90
45008;DHT22;30743;52.008;5.644;2024-01-30T04:18:59;12.20;99.90
45008;DHT22;30743;52.008;5.644;2024-01-30T04:21:25;12.20;99.90
45008;DHT22;30743;52.008;5.644;2024-01-30T04:23:51;12.30;99.90
45008;DHT22;30743;52.008;5.644;2024-01-30T04:26:17;12.40;99.90
45008;DHT22;30743;52.008;5.644;2024-01-30T04:28:44;12.40;99.90
45008;DHT22;30743;52.008;5.644;2024-01-30T04:31:10;12.50;99.90
45008;DHT22;30743;52.008;5.644;2024-01-30T04:33:36;12.50;99.90
45008;DHT22;30743;52.008;5.644;2024-01-30T04:36:01;12.60;99.90
45008;DHT22;30743;52.008;5.644;2024-01-30T04:38:27;12.30;99.90
45008;DHT22;30743;52.008;5.644;2024-01-30T04:40:52;12.40;99.90
45008;DHT22;30743;52.008;5.644;2024-01-30T04:43:18;12.30;99.90
45008;DHT22;30743;52.008;5.644;2024-01-30T04:45:44;12.40;99.90
45008;DHT22;30743;52.008;5.644;2024-01-30T04:48:10;12.40;99.90
45008;DHT22;30743;52.008;5.644;2024-01-30T04:50:35;12.30;99.90
45008;DHT22;30743;52.008;5.644;2024-01-30T04:53:01;12.40;99.90
45008;DHT22;30743;52.008;5.644;2024-01-30T04:55:27;12.40;99.90
45008;DHT22;30743;52.008;5.644;2024-01-30T04:57:52;12.40;99.90
45008;DHT22;30743;52.008;5.644;2024-01-30T05:00:18;12.30;99.90
45008;DHT22;30743;52.008;5.644;2024-01-30T05:02:44;12.40;99.90
45008;DHT22;30743;52.008;5.644;2024-01-30T05:05:09;12.30;99.90
45008;DHT22;30743;52.008;5.644;2024-01-30T05:07:36;12.30;99.90
45008;DHT22;30743;52.008;5.644;2024-01-30T05:10:02;12.30;99.90
45008;DHT22;30743;52.008;5.644;2024-01-30T05:12:28;12.40;99.90
45008;DHT22;30743;52.008;5.644;2024-01-30T05:14:54;12.40;99.90
45008;DHT22;30743;52.008;5.644;2024-01-30T05:17:20;12.60;99.90
45008;DHT22;30743;52.008;5.644;2024-01-30T05:19:45;12.80;99.90
45008;DHT22;30743;52.008;5.644;2024-01-30T05:22:11;12.90;99.90
45008;DHT22;30743;52.008;5.644;2024-01-30T05:24:41;13.20;99.90
45008;DHT22;30743;52.008;5.644;2024-01-30T05:27:07;13.00;99.90
45008;DHT22;30743;52.008;5.644;2024-01-30T05:29:32;13.00;99.90
45008;DHT22;30743;52.008;5.644;2024-01-30T05:31:58;12.90;99.90
45008;DHT22;30743;52.008;5.644;2024-01-30T05:34:24;12.90;99.90
45008;DHT22;30743;52.008;5.644;2024-01-30T05:36:49;12.90;99.90
45008;DHT22;30743;52.008;5.644;2024-01-30T05:39:15;12.80;99.90
45008;DHT22;30743;52.008;5.644;2024-01-30T05:41:41;12.80;99.90
45008;DHT22;30743;52.008;5.644;2024-01-30T05:44:06;13.00;99.90
45008;DHT22;30743;52.008;5.644;2024-01-30T05:46:32;12.80;99.90
45008;DHT22;30743;52.008;5.644;2024-01-30T05:48:58;12.60;99.90
45008;DHT22;30743;52.008;5.644;2024-01-30T05:51:24;12.70;99.90
45008;DHT22;30743;52.008;5.644;2024-01-30T05:53:50;12.50;99.90
45008;DHT22;30743;52.008;5.644;2024-01-30T05:56:15;12.60;99.90
45008;DHT22;30743;52.008;5.644;2024-01-30T05:58:41;12.70;99.90
45008;DHT22;30743;52.008;5.644;2024-01-30T06:01:08;12.60;99.90
45008;DHT22;30743;52.008;5.644;2024-01-30T06:03:34;12.70;99.90
45008;DHT22;30743;52.008;5.644;2024-01-30T06:06:00;12.70;99.90
45008;DHT22;30743;52.008;5.644;2024-01-30T06:08:26;12.70;99.90
45008;DHT22;30743;52.008;5.644;2024-01-30T06:10:51;12.60;99.90
45008;DHT22;30743;52.008;5.644;2024-01-30T06:13:17;12.60;99.90
45008;DHT22;30743;52.008;5.644;2024-01-30T06:15:43;12.50;99.90
45008;DHT22;30743;52.008;5.644;2024-01-30T06:18:08;12.80;99.90
45008;DHT22;30743;52.008;5.644;2024-01-30T06:20:34;12.80;99.90
45008;DHT22;30743;52.008;5.644;2024-01-30T06:23:00;12.80;99.90
45008;DHT22;30743;52.008;5.644;2024-01-30T06:25:26;13.00;99.90
45008;DHT22;30743;52.008;5.644;2024-01-30T06:27:51;13.50;99.90
45008;DHT22;30743;52.008;5.644;2024-01-30T06:30:17;13.00;99.90
45008;DHT22;30743;52.008;5.644;2024-01-30T06:32:43;13.10;99.90
45008;DHT22;30743;52.008;5.644;2024-01-30T06:35:08;14.50;99.90
45008;DHT22;30743;52.008;5.644;2024-01-30T06:37:36;13.20;99.90
45008;DHT22;30743;52.008;5.644;2024-01-30T06:40:01;13.10;99.90
45008;DHT22;30743;52.008;5.644;2024-01-30T06:42:27;13.10;99.90
45008;DHT22;30743;52.008;5.644;2024-01-30T06:44:52;13.00;99.90
45008;DHT22;30743;52.008;5.644;2024-01-30T06:47:18;13.20;99.90
45008;DHT22;30743;52.008;5.644;2024-01-30T06:49:43;13.20;99.90
45008;DHT22;30743;52.008;5.644;2024-01-30T06:52:10;13.20;99.90
45008;DHT22;30743;52.008;5.644;2024-01-30T06:54:36;13.00;99.90
45008;DHT22;30743;52.008;5.644;2024-01-30T06:57:02;12.80;99.90
45008;DHT22;30743;52.008;5.644;2024-01-30T06:59:28;12.80;99.90
45008;DHT22;30743;52.008;5.644;2024-01-30T07:01:53;13.00;99.90
45008;DHT22;30743;52.008;5.644;2024-01-30T07:04:19;12.90;99.90
45008;DHT22;30743;52.008;5.644;2024-01-30T07:06:44;13.00;99.90
45008;DHT22;30743;52.008;5.644;2024-01-30T07:09:10;13.00;99.90
45008;DHT22;30743;52.008;5.644;2024-01-30T07:11:36;13.00;99.90
45008;DHT22;30743;52.008;5.644;2024-01-30T07:14:01;13.00;99.90
45008;DHT22;30743;52.008;5.644;2024-01-30T07:16:30;12.70;99.90
45008;DHT22;30743;52.008;5.644;2024-01-30T07:18:55;12.70;99.90
45008;DHT22;30743;52.008;5.644;2024-01-30T07:21:22;12.80;99.90
45008;DHT22;30743;52.008;5.644;2024-01-30T07:23:53;13.40;99.90
45008;DHT22;30743;52.008;5.644;2024-01-30T07:26:19;12.90;99.90
45008;DHT22;30743;52.008;5.644;2024-01-30T07:28:44;12.90;99.90
45008;DHT22;30743;52.008;5.644;2024-01-30T07:31:10;12.90;99.90
45008;DHT22;30743;52.008;5.644;2024-01-30T07:33:35;12.80;99.90
45008;DHT22;30743;52.008;5.644;2024-01-30T07:36:01;12.80;99.90
45008;DHT22;30743;52.008;5.644;2024-01-30T07:38:26;12.70;99.90
45008;DHT22;30743;52.008;5.644;2024-01-30T07:40:52;12.70;99.90
45008;DHT22;30743;52.008;5.644;2024-01-30T07:43:18;12.70;99.90
45008;DHT22;30743;52.008;5.644;2024-01-30T07:45:45;12.70;99.90
45008;DHT22;30743;52.008;5.644;2024-01-30T07:48:11;12.70;99.90
45008;DHT22;30743;52.008;5.644;2024-01-30T07:50:36;12.70;99.90
45008;DHT22;30743;52.008;5.644;2024-01-30T07:53:02;12.60;99.90
45008;DHT22;30743;52.008;5.644;2024-01-30T07:55:27;12.70;99.90
45008;DHT22;30743;52.008;5.644;2024-01-30T07:57:55;12.70;99.90
45008;DHT22;30743;52.008;5.644;2024-01-30T08:00:21;12.90;99.90
45008;DHT22;30743;52.008;5.644;2024-01-30T08:02:53;12.80;99.90
45008;DHT22;30743;52.008;5.644;2024-01-30T08:05:22;13.00;99.90
45008;DHT22;30743;52.008;5.644;2024-01-30T08:07:49;13.00;99.90
45008;DHT22;30743;52.008;5.644;2024-01-30T08:10:15;13.20;99.90
45008;DHT22;30743;52.008;5.644;2024-01-30T08:12:41;13.20;99.90
45008;DHT22;30743;52.008;5.644;2024-01-30T08:15:07;13.20;99.90
45008;DHT22;30743;52.008;5.644;2024-01-30T08:17:33;13.20;99.90
45008;DHT22;30743;52.008;5.644;2024-01-30T08:19:59;13.20;99.90
45008;DHT22;30743;52.008;5.644;2024-01-30T08:22:25;13.30;99.90
45008;DHT22;30743;52.008;5.644;2024-01-30T08:24:50;13.30;99.90
45008;DHT22;30743;52.008;5.644;2024-01-30T08:27:16;13.50;99.90
45008;DHT22;30743;52.008;5.644;2024-01-30T08:29:41;13.50;99.90
45008;DHT22;30743;52.008;5.644;2024-01-30T08:32:07;13.50;99.90
45008;DHT22;30743;52.008;5.644;2024-01-30T08:34:33;13.60;99.90
45008;DHT22;30743;52.008;5.644;2024-01-30T08:36:59;13.80;99.90
45008;DHT22;30743;52.008;5.644;2024-01-30T08:39:24;13.70;99.90
45008;DHT22;30743;52.008;5.644;2024-01-30T08:41:50;13.60;99.90
45008;DHT22;30743;52.008;5.644;2024-01-30T08:44:16;13.50;99.90
45008;DHT22;30743;52.008;5.644;2024-01-30T08:46:43;13.50;99.90
45008;DHT22;30743;52.008;5.644;2024-01-30T08:49:08;13.60;99.90
45008;DHT22;30743;52.008;5.644;2024-01-30T08:51:34;13.60;99.90
45008;DHT22;30743;52.008;5.644;2024-01-30T08:54:00;13.70;99.90
45008;DHT22;30743;52.008;5.644;2024-01-30T08:56:25;13.70;99.90
45008;DHT22;30743;52.008;5.644;2024-01-30T08:58:51;13.70;99.90
45008;DHT22;30743;52.008;5.644;2024-01-30T09:01:16;13.70;99.90
45008;DHT22;30743;52.008;5.644;2024-01-30T09:03:42;13.60;99.90
45008;DHT22;30743;52.008;5.644;2024-01-30T09:06:11;14.50;99.90
45008;DHT22;30743;52.008;5.644;2024-01-30T09:08:37;13.60;99.90
45008;DHT22;30743;52.008;5.644;2024-01-30T09:11:09;13.40;99.90
45008;DHT22;30743;52.008;5.644;2024-01-30T09:13:35;13.50;99.90
45008;DHT22;30743;52.008;5.644;2024-01-30T09:16:00;13.60;99.90
45008;DHT22;30743;52.008;5.644;2024-01-30T09:18:26;13.80;99.90
45008;DHT22;30743;52.008;5.644;2024-01-30T09:20:51;14.00;99.90
45008;DHT22;30743;52.008;5.644;2024-01-30T09:23:17;14.00;99.90
45008;DHT22;30743;52.008;5.644;2024-01-30T09:25:45;13.90;99.90
45008;DHT22;30743;52.008;5.644;2024-01-30T09:28:10;13.80;99.90
45008;DHT22;30743;52.008;5.644;2024-01-30T09:30:36;13.90;99.90
45008;DHT22;30743;52.008;5.644;2024-01-30T09:33:02;14.80;99.90
45008;DHT22;30743;52.008;5.644;2024-01-30T09:35:27;13.90;99.90
45008;DHT22;30743;52.008;5.644;2024-01-30T09:37:53;13.90;99.90
45008;DHT22;30743;52.008;5.644;2024-01-30T09:40:19;14.40;99.90
45008;DHT22;30743;52.008;5.644;2024-01-30T09:42:47;14.10;99.90
45008;DHT22;30743;52.008;5.644;2024-01-30T09:45:17;14.20;99.90
45008;DHT22;30743;52.008;5.644;2024-01-30T09:47:45;14.20;99.90
45008;DHT22;30743;52.008;5.644;2024-01-30T09:50:12;14.30;99.90
45008;DHT22;30743;52.008;5.644;2024-01-30T09:52:38;14.40;99.90
45008;DHT22;30743;52.008;5.644;2024-01-30T09:55:05;14.40;99.90
45008;DHT22;30743;52.008;5.644;2024-01-30T09:57:31;14.50;99.90
45008;DHT22;30743;52.008;5.644;2024-01-30T09:59:57;14.60;99.90
45008;DHT22;30743;52.008;5.644;2024-01-30T10:02:23;14.60;99.90
45008;DHT22;30743;52.008;5.644;2024-01-30T10:04:50;14.60;99.90
45008;DHT22;30743;52.008;5.644;2024-01-30T10:07:16;14.60;99.90
45008;DHT22;30743;52.008;5.644;2024-01-30T10:09:42;14.70;99.90
45008;DHT22;30743;52.008;5.644;2024-01-30T10:12:09;14.60;99.90
45008;DHT22;30743;52.008;5.644;2024-01-30T10:14:41;14.80;99.90
45008;DHT22;30743;52.008;5.644;2024-01-30T10:17:11;14.40;99.90
45008;DHT22;30743;52.008;5.644;2024-01-30T10:19:37;14.30;99.90
45008;DHT22;30743;52.008;5.644;2024-01-30T10:22:04;14.00;99.90
45008;DHT22;30743;52.008;5.644;2024-01-30T10:24:30;13.90;99.90
45008;DHT22;30743;52.008;5.644;2024-01-30T10:26:56;15.10;99.90
45008;DHT22;30743;52.008;5.644;2024-01-30T10:29:21;15.70;99.90
45008;DHT22;30743;52.008;5.644;2024-01-30T10:32:03;14.00;99.90
45008;DHT22;30743;52.008;5.644;2024-01-30T10:34:29;13.90;99.90
45008;DHT22;30743;52.008;5.644;2024-01-30T10:37:11;13.70;99.90
45008;DHT22;30743;52.008;5.644;2024-01-30T10:39:46;13.60;99.90
45008;DHT22;30743;52.008;5.644;2024-01-30T10:42:18;13.80;99.90
45008;DHT22;30743;52.008;5.644;2024-01-30T10:44:54;13.80;99.90
45008;DHT22;30743;52.008;5.644;2024-01-30T10:47:26;13.90;99.90
45008;DHT22;30743;52.008;5.644;2024-01-30T10:49:52;14.00;99.90
45008;DHT22;30743;52.008;5.644;2024-01-30T10:52:20;14.10;99.90
45008;DHT22;30743;52.008;5.644;2024-01-30T10:54:46;14.40;99.90
45008;DHT22;30743;52.008;5.644;2024-01-30T10:57:13;14.60;99.90
45008;DHT22;30743;52.008;5.644;2024-01-30T10:59:41;15.00;99.90
45008;DHT22;30743;52.008;5.644;2024-01-30T11:02:07;15.00;99.90
45008;DHT22;30743;52.008;5.644;2024-01-30T11:04:37;15.20;99.90
45008;DHT22;30743;52.008;5.644;2024-01-30T11:07:38;15.40;99.90
45008;DHT22;30743;52.008;5.644;2024-01-30T11:12:24;15.70;99.90
45008;DHT22;30743;52.008;5.644;2024-01-30T11:15:11;15.30;99.90
45008;DHT22;30743;52.008;5.644;2024-01-30T11:20:22;14.70;99.90
45008;DHT22;30743;52.008;5.644;2024-01-30T11:22:56;14.60;99.90
45008;DHT22;30743;52.008;5.644;2024-01-30T11:25:23;14.70;99.90
45008;DHT22;30743;52.008;5.644;2024-01-30T11:27:54;14.50;99.90
45008;DHT22;30743;52.008;5.644;2024-01-30T11:30:23;14.20;99.90
45008;DHT22;30743;52.008;5.644;2024-01-30T11:33:02;14.30;99.90
45008;DHT22;30743;52.008;5.644;2024-01-30T11:35:34;14.50;99.90
45008;DHT22;30743;52.008;5.644;2024-01-30T11:38:00;14.50;99.90
45008;DHT22;30743;52.008;5.644;2024-01-30T11:40:28;14.40;99.90
45008;DHT22;30743;52.008;5.644;2024-01-30T11:42:55;14.20;99.90
45008;DHT22;30743;52.008;5.644;2024-01-30T11:45:21;14.20;99.90
45008;DHT22;30743;52.008;5.644;2024-01-30T11:47:47;14.00;99.90
45008;DHT22;30743;52.008;5.644;2024-01-30T11:50:13;14.00;99.90
45008;DHT22;30743;52.008;5.644;2024-01-30T11:52:39;15.50;99.90
45008;DHT22;30743;52.008;5.644;2024-01-30T11:55:05;15.00;99.90
45008;DHT22;30743;52.008;5.644;2024-01-30T11:57:31;13.90;99.90
45008;DHT22;30743;52.008;5.644;2024-01-30T11:59:57;13.90;99.90
45008;DHT22;30743;52.008;5.644;2024-01-30T12:02:22;13.90;99.90
45008;DHT22;30743;52.008;5.644;2024-01-30T12:04:48;13.60;99.90
45008;DHT22;30743;52.008;5.644;2024-01-30T12:07:14;13.50;99.90
45008;DHT22;30743;52.008;5.644;2024-01-30T12:09:42;13.50;99.90
45008;DHT22;30743;52.008;5.644;2024-01-30T12:12:08;13.50;99.90
45008;DHT22;30743;52.008;5.644;2024-01-30T12:14:38;14.70;99.90
45008;DHT22;30743;52.008;5.644;2024-01-30T12:17:04;13.90;99.90
45008;DHT22;30743;52.008;5.644;2024-01-30T12:19:30;14.20;99.90
45008;DHT22;30743;52.008;5.644;2024-01-30T12:21:58;14.20;99.90
45008;DHT22;30743;52.008;5.644;2024-01-30T12:24:27;15.30;99.90
45008;DHT22;30743;52.008;5.644;2024-01-30T12:26:59;15.30;99.90
45008;DHT22;30743;52.008;5.644;2024-01-30T12:29:25;14.20;99.90
45008;DHT22;30743;52.008;5.644;2024-01-30T12:31:54;14.10;99.90
45008;DHT22;30743;52.008;5.644;2024-01-30T12:34:20;13.80;99.90
45008;DHT22;30743;52.008;5.644;2024-01-30T12:36:47;13.60;99.90
45008;DHT22;30743;52.008;5.644;2024-01-30T12:39:14;13.40;99.90
45008;DHT22;30743;52.008;5.644;2024-01-30T12:41:40;13.30;99.90
45008;DHT22;30743;52.008;5.644;2024-01-30T12:44:06;13.40;99.90
45008;DHT22;30743;52.008;5.644;2024-01-30T12:46:34;13.40;99.90
45008;DHT22;30743;52.008;5.644;2024-01-30T12:48:59;14.00;99.90
45008;DHT22;30743;52.008;5.644;2024-01-30T12:51:25;14.00;99.90
45008;DHT22;30743;52.008;5.644;2024-01-30T12:53:51;14.00;99.90
45008;DHT22;30743;52.008;5.644;2024-01-30T12:56:16;14.10;99.90
45008;DHT22;30743;52.008;5.644;2024-01-30T12:58:42;14.10;99.90
45008;DHT22;30743;52.008;5.644;2024-01-30T13:01:08;13.70;99.90
45008;DHT22;30743;52.008;5.644;2024-01-30T13:03:34;13.80;99.90
45008;DHT22;30743;52.008;5.644;2024-01-30T13:06:00;13.70;99.90
45008;DHT22;30743;52.008;5.644;2024-01-30T13:08:26;13.60;99.90
45008;DHT22;30743;52.008;5.644;2024-01-30T13:10:51;13.80;99.90
45008;DHT22;30743;52.008;5.644;2024-01-30T13:13:17;13.90;99.90
45008;DHT22;30743;52.008;5.644;2024-01-30T13:15:42;14.60;99.90
45008;DHT22;30743;52.008;5.644;2024-01-30T13:18:08;13.80;99.90
45008;DHT22;30743;52.008;5.644;2024-01-30T13:20:34;14.30;99.90
45008;DHT22;30743;52.008;5.644;2024-01-30T13:22:59;13.60;99.90
45008;DHT22;30743;52.008;5.644;2024-01-30T13:25:25;14.90;99.90
45008;DHT22;30743;52.008;5.644;2024-01-30T13:27:50;13.30;99.90
45008;DHT22;30743;52.008;5.644;2024-01-30T13:30:16;13.50;99.90
45008;DHT22;30743;52.008;5.644;2024-01-30T13:32:41;13.00;99.90
45008;DHT22;30743;52.008;5.644;2024-01-30T13:35:09;12.80;99.90
45008;DHT22;30743;52.008;5.644;2024-01-30T13:37:35;12.50;99.90
45008;DHT22;30743;52.008;5.644;2024-01-30T13:40:05;12.30;99.90
45008;DHT22;30743;52.008;5.644;2024-01-30T13:42:34;12.10;99.90
45008;DHT22;30743;52.008;5.644;2024-01-30T13:45:00;12.10;99.90
45008;DHT22;30743;52.008;5.644;2024-01-30T13:47:25;12.20;99.90
45008;DHT22;30743;52.008;5.644;2024-01-30T13:49:51;12.00;99.90
45008;DHT22;30743;52.008;5.644;2024-01-30T13:52:18;11.90;99.90
45008;DHT22;30743;52.008;5.644;2024-01-30T13:54:44;12.10;99.90
45008;DHT22;30743;52.008;5.644;2024-01-30T13:57:09;12.10;99.90
45008;DHT22;30743;52.008;5.644;2024-01-30T13:59:35;12.00;99.90
45008;DHT22;30743;52.008;5.644;2024-01-30T14:02:01;11.90;99.90
45008;DHT22;30743;52.008;5.644;2024-01-30T14:04:26;11.90;99.90
45008;DHT22;30743;52.008;5.644;2024-01-30T14:06:52;12.10;99.90
45008;DHT22;30743;52.008;5.644;2024-01-30T14:09:17;12.20;99.90
45008;DHT22;30743;52.008;5.644;2024-01-30T14:11:43;12.20;99.90
45008;DHT22;30743;52.008;5.644;2024-01-30T14:14:09;12.10;99.90
45008;DHT22;30743;52.008;5.644;2024-01-30T14:16:35;13.10;99.90
45008;DHT22;30743;52.008;5.644;2024-01-30T14:19:01;12.50;99.90
45008;DHT22;30743;52.008;5.644;2024-01-30T14:21:26;12.20;99.90
45008;DHT22;30743;52.008;5.644;2024-01-30T14:23:52;12.20;99.90
45008;DHT22;30743;52.008;5.644;2024-01-30T14:26:17;12.20;99.90
45008;DHT22;30743;52.008;5.644;2024-01-30T14:28:43;12.10;99.90
45008;DHT22;30743;52.008;5.644;2024-01-30T14:31:09;12.00;99.90
45008;DHT22;30743;52.008;5.644;2024-01-30T14:33:34;11.90;99.90
45008;DHT22;30743;52.008;5.644;2024-01-30T14:36:00;11.80;99.90
45008;DHT22;30743;52.008;5.644;2024-01-30T14:38:26;12.00;99.90
45008;DHT22;30743;52.008;5.644;2024-01-30T14:40:51;11.70;99.90
45008;DHT22;30743;52.008;5.644;2024-01-30T14:43:17;11.50;99.90
45008;DHT22;30743;52.008;5.644;2024-01-30T14:45:42;11.30;99.90
45008;DHT22;30743;52.008;5.644;2024-01-30T14:48:11;12.60;99.90
45008;DHT22;30743;52.008;5.644;2024-01-30T14:50:36;11.20;99.90
45008;DHT22;30743;52.008;5.644;2024-01-30T14:53:02;11.20;99.90
45008;DHT22;30743;52.008;5.644;2024-01-30T14:55:28;11.20;99.90
45008;DHT22;30743;52.008;5.644;2024-01-30T14:57:53;11.30;99.90
45008;DHT22;30743;52.008;5.644;2024-01-30T15:00:19;10.90;99.90
45008;DHT22;30743;52.008;5.644;2024-01-30T15:02:45;10.90;99.90
45008;DHT22;30743;52.008;5.644;2024-01-30T15:05:12;10.90;99.90
45008;DHT22;30743;52.008;5.644;2024-01-30T15:07:38;10.80;99.90
45008;DHT22;30743;52.008;5.644;2024-01-30T15:10:04;12.60;99.90
45008;DHT22;30743;52.008;5.644;2024-01-30T15:12:29;10.90;99.90
45008;DHT22;30743;52.008;5.644;2024-01-30T15:14:55;11.00;99.90
45008;DHT22;30743;52.008;5.644;2024-01-30T15:17:20;11.00;99.90
45008;DHT22;30743;52.008;5.644;2024-01-30T15:19:49;11.20;99.90
45008;DHT22;30743;52.008;5.644;2024-01-30T15:22:16;11.00;99.90
45008;DHT22;30743;52.008;5.644;2024-01-30T15:24:42;11.10;99.90
45008;DHT22;30743;52.008;5.644;2024-01-30T15:27:07;11.20;99.90
45008;DHT22;30743;52.008;5.644;2024-01-30T15:29:33;11.10;99.90